sensor_id;sensor_type;location;lat;lon;timestamp;P1;durP1;ratioP1;P2;durP2;ratioP2
57047;SDS011;42934;54.294;18.598;2022-10-16T00:00:11;44.90;;;24.50;;
57047;SDS011;42934;54.294;18.598;2022-10-16T00:03:01;42.60;;;24.90;;
57047;SDS011;42934;54.294;18.598;2022-10-16T00:05:31;41.08;;;23.05;;
57047;SDS011;42934;54.294;18.598;2022-10-16T00:08:01;44.55;;;26.30;;
57047;SDS011;42934;54.294;18.598;2022-10-16T00:10:30;42.53;;;24.58;;
57047;SDS011;42934;54.294;18.598;2022-10-16T00:12:59;44.67;;;25.70;;
57047;SDS011;42934;54.294;18.598;2022-10-16T00:15:28;45.78;;;26.65;;
57047;SDS011;42934;54.294;18.598;2022-10-16T00:17:57;43.42;;;24.98;;
57047;SDS011;42934;54.294;18.598;2022-10-16T00:20:27;44.25;;;25.45;;
57047;SDS011;42934;54.294;18.598;2022-10-16T00:25:27;45.25;;;24.50;;
57047;SDS011;42934;54.294;18.598;2022-10-16T00:27:59;43.58;;;25.38;;
57047;SDS011;42934;54.294;18.598;2022-10-16T00:30:28;43.42;;;25.20;;
57047;SDS011;42934;54.294;18.598;2022-10-16T00:32:57;46.30;;;24.30;;
57047;SDS011;42934;54.294;18.598;2022-10-16T00:35:26;47.90;;;25.60;;
57047;SDS011;42934;54.294;18.598;2022-10-16T00:37:55;41.75;;;23.65;;
57047;SDS011;42934;54.294;18.598;2022-10-16T00:40:25;44.83;;;24.85;;
57047;SDS011;42934;54.294;18.598;2022-10-16T00:42:56;51.25;;;26.95;;
57047;SDS011;42934;54.294;18.598;2022-10-16T00:45:25;47.53;;;26.35;;
57047;SDS011;42934;54.294;18.598;2022-10-16T00:47:54;48.92;;;25.67;;
57047;SDS011;42934;54.294;18.598;2022-10-16T00:50:26;52.53;;;26.25;;
57047;SDS011;42934;54.294;18.598;2022-10-16T00:52:57;47.47;;;25.13;;
57047;SDS011;42934;54.294;18.598;2022-10-16T00:55:29;48.63;;;25.92;;
57047;SDS011;42934;54.294;18.598;2022-10-16T00:57:58;45.78;;;25.17;;
57047;SDS011;42934;54.294;18.598;2022-10-16T01:00:28;47.50;;;25.73;;
57047;SDS011;42934;54.294;18.598;2022-10-16T01:02:57;44.20;;;24.95;;
57047;SDS011;42934;54.294;18.598;2022-10-16T01:05:30;49.47;;;25.38;;
57047;SDS011;42934;54.294;18.598;2022-10-16T01:08:03;48.75;;;25.83;;
57047;SDS011;42934;54.294;18.598;2022-10-16T01:10:39;49.28;;;25.40;;
57047;SDS011;42934;54.294;18.598;2022-10-16T01:13:15;41.53;;;24.55;;
57047;SDS011;42934;54.294;18.598;2022-10-16T01:15:51;47.65;;;26.33;;
57047;SDS011;42934;54.294;18.598;2022-10-16T01:18:28;47.30;;;24.85;;
57047;SDS011;42934;54.294;18.598;2022-10-16T01:21:06;44.80;;;24.20;;
57047;SDS011;42934;54.294;18.598;2022-10-16T01:23:40;46.33;;;24.85;;
57047;SDS011;42934;54.294;18.598;2022-10-16T01:26:34;45.22;;;24.65;;
57047;SDS011;42934;54.294;18.598;2022-10-16T01:29:13;44.55;;;24.30;;
57047;SDS011;42934;54.294;18.598;2022-10-16T01:31:48;44.00;;;24.58;;
57047;SDS011;42934;54.294;18.598;2022-10-16T01:34:23;42.20;;;22.90;;
57047;SDS011;42934;54.294;18.598;2022-10-16T01:37:00;46.17;;;25.15;;
57047;SDS011;42934;54.294;18.598;2022-10-16T01:39:33;44.97;;;24.40;;
57047;SDS011;42934;54.294;18.598;2022-10-16T01:42:06;37.10;;;21.10;;
57047;SDS011;42934;54.294;18.598;2022-10-16T01:44:40;41.47;;;23.15;;
57047;SDS011;42934;54.294;18.598;2022-10-16T01:47:11;38.58;;;23.23;;
57047;SDS011;42934;54.294;18.598;2022-10-16T01:49:41;43.53;;;23.67;;
57047;SDS011;42934;54.294;18.598;2022-10-16T01:52:13;42.30;;;23.95;;
57047;SDS011;42934;54.294;18.598;2022-10-16T01:54:46;39.42;;;23.23;;
57047;SDS011;42934;54.294;18.598;2022-10-16T01:57:18;37.45;;;22.13;;
57047;SDS011;42934;54.294;18.598;2022-10-16T01:59:52;35.20;;;21.13;;
57047;SDS011;42934;54.294;18.598;2022-10-16T02:02:26;34.45;;;20.48;;
57047;SDS011;42934;54.294;18.598;2022-10-16T02:05:02;32.22;;;20.73;;
57047;SDS011;42934;54.294;18.598;2022-10-16T02:07:36;35.50;;;20.50;;
57047;SDS011;42934;54.294;18.598;2022-10-16T02:10:05;34.05;;;19.17;;
57047;SDS011;42934;54.294;18.598;2022-10-16T02:12:35;32.35;;;20.20;;
57047;SDS011;42934;54.294;18.598;2022-10-16T02:15:09;34.10;;;19.80;;
57047;SDS011;42934;54.294;18.598;2022-10-16T02:17:39;29.50;;;18.63;;
57047;SDS011;42934;54.294;18.598;2022-10-16T02:20:08;27.83;;;18.13;;
57047;SDS011;42934;54.294;18.598;2022-10-16T02:25:09;28.58;;;18.33;;
57047;SDS011;42934;54.294;18.598;2022-10-16T02:27:42;29.23;;;18.70;;
57047;SDS011;42934;54.294;18.598;2022-10-16T02:30:19;30.27;;;19.60;;
57047;SDS011;42934;54.294;18.598;2022-10-16T02:32:53;26.55;;;17.63;;
57047;SDS011;42934;54.294;18.598;2022-10-16T02:35:23;29.85;;;19.27;;
57047;SDS011;42934;54.294;18.598;2022-10-16T02:40:23;26.48;;;17.00;;
57047;SDS011;42934;54.294;18.598;2022-10-16T02:42:54;29.50;;;19.33;;
57047;SDS011;42934;54.294;18.598;2022-10-16T02:45:24;29.48;;;18.48;;
57047;SDS011;42934;54.294;18.598;2022-10-16T02:47:54;30.20;;;18.85;;
57047;SDS011;42934;54.294;18.598;2022-10-16T02:50:22;30.63;;;18.63;;
57047;SDS011;42934;54.294;18.598;2022-10-16T02:52:52;26.60;;;18.30;;
57047;SDS011;42934;54.294;18.598;2022-10-16T02:55:20;28.25;;;18.20;;
57047;SDS011;42934;54.294;18.598;2022-10-16T02:57:49;26.42;;;17.48;;
57047;SDS011;42934;54.294;18.598;2022-10-16T03:00:19;29.92;;;18.15;;
57047;SDS011;42934;54.294;18.598;2022-10-16T03:02:49;28.73;;;19.00;;
57047;SDS011;42934;54.294;18.598;2022-10-16T03:05:18;27.67;;;18.42;;
57047;SDS011;42934;54.294;18.598;2022-10-16T03:07:52;31.45;;;19.00;;
57047;SDS011;42934;54.294;18.598;2022-10-16T03:10:22;24.52;;;16.83;;
57047;SDS011;42934;54.294;18.598;2022-10-16T03:12:51;23.98;;;17.23;;
57047;SDS011;42934;54.294;18.598;2022-10-16T03:15:19;27.17;;;17.30;;
57047;SDS011;42934;54.294;18.598;2022-10-16T03:17:50;25.75;;;17.95;;
57047;SDS011;42934;54.294;18.598;2022-10-16T03:20:19;29.42;;;18.10;;
57047;SDS011;42934;54.294;18.598;2022-10-16T03:22:48;25.70;;;17.83;;
57047;SDS011;42934;54.294;18.598;2022-10-16T03:25:17;23.95;;;16.88;;
57047;SDS011;42934;54.294;18.598;2022-10-16T03:27:46;27.58;;;18.80;;
57047;SDS011;42934;54.294;18.598;2022-10-16T03:30:14;26.83;;;18.27;;
57047;SDS011;42934;54.294;18.598;2022-10-16T03:32:44;23.80;;;17.40;;
57047;SDS011;42934;54.294;18.598;2022-10-16T03:35:14;25.17;;;18.15;;
57047;SDS011;42934;54.294;18.598;2022-10-16T03:37:43;26.77;;;17.77;;
57047;SDS011;42934;54.294;18.598;2022-10-16T03:40:12;28.80;;;18.90;;
57047;SDS011;42934;54.294;18.598;2022-10-16T03:42:41;26.02;;;17.10;;
57047;SDS011;42934;54.294;18.598;2022-10-16T03:45:11;26.48;;;17.60;;
57047;SDS011;42934;54.294;18.598;2022-10-16T03:47:40;25.63;;;17.77;;
57047;SDS011;42934;54.294;18.598;2022-10-16T03:50:09;26.92;;;17.75;;
57047;SDS011;42934;54.294;18.598;2022-10-16T03:52:39;27.42;;;17.30;;
57047;SDS011;42934;54.294;18.598;2022-10-16T03:57:37;24.13;;;16.20;;
57047;SDS011;42934;54.294;18.598;2022-10-16T04:00:06;22.83;;;16.20;;
57047;SDS011;42934;54.294;18.598;2022-10-16T04:02:39;23.77;;;17.30;;
57047;SDS011;42934;54.294;18.598;2022-10-16T04:05:08;23.77;;;17.08;;
57047;SDS011;42934;54.294;18.598;2022-10-16T04:07:37;25.03;;;17.40;;
57047;SDS011;42934;54.294;18.598;2022-10-16T04:12:36;24.35;;;16.10;;
57047;SDS011;42934;54.294;18.598;2022-10-16T04:15:06;25.35;;;17.30;;
57047;SDS011;42934;54.294;18.598;2022-10-16T04:17:35;25.75;;;16.92;;
57047;SDS011;42934;54.294;18.598;2022-10-16T04:20:04;26.92;;;17.63;;
57047;SDS011;42934;54.294;18.598;2022-10-16T04:22:34;24.52;;;17.13;;
57047;SDS011;42934;54.294;18.598;2022-10-16T04:25:04;25.48;;;18.05;;
57047;SDS011;42934;54.294;18.598;2022-10-16T04:27:33;26.52;;;18.10;;
57047;SDS011;42934;54.294;18.598;2022-10-16T04:30:05;25.13;;;17.83;;
57047;SDS011;42934;54.294;18.598;2022-10-16T04:35:04;24.02;;;16.75;;
57047;SDS011;42934;54.294;18.598;2022-10-16T04:37:33;25.83;;;16.55;;
57047;SDS011;42934;54.294;18.598;2022-10-16T04:40:03;23.38;;;16.65;;
57047;SDS011;42934;54.294;18.598;2022-10-16T04:42:34;26.50;;;17.92;;
57047;SDS011;42934;54.294;18.598;2022-10-16T04:45:03;28.50;;;18.88;;
57047;SDS011;42934;54.294;18.598;2022-10-16T04:47:39;23.75;;;16.13;;
57047;SDS011;42934;54.294;18.598;2022-10-16T04:50:08;29.52;;;19.00;;
57047;SDS011;42934;54.294;18.598;2022-10-16T04:52:37;27.33;;;18.97;;
57047;SDS011;42934;54.294;18.598;2022-10-16T04:55:08;31.77;;;20.67;;
57047;SDS011;42934;54.294;18.598;2022-10-16T04:57:37;30.95;;;20.55;;
57047;SDS011;42934;54.294;18.598;2022-10-16T05:00:06;29.17;;;19.45;;
57047;SDS011;42934;54.294;18.598;2022-10-16T05:02:36;31.80;;;20.73;;
57047;SDS011;42934;54.294;18.598;2022-10-16T05:05:05;32.55;;;20.48;;
57047;SDS011;42934;54.294;18.598;2022-10-16T05:07:34;33.65;;;22.35;;
57047;SDS011;42934;54.294;18.598;2022-10-16T05:10:04;31.65;;;20.10;;
57047;SDS011;42934;54.294;18.598;2022-10-16T05:12:34;34.47;;;21.70;;
57047;SDS011;42934;54.294;18.598;2022-10-16T05:17:33;35.10;;;20.90;;
57047;SDS011;42934;54.294;18.598;2022-10-16T05:20:05;37.65;;;23.15;;
57047;SDS011;42934;54.294;18.598;2022-10-16T05:22:35;34.72;;;22.95;;
57047;SDS011;42934;54.294;18.598;2022-10-16T05:25:04;35.83;;;22.45;;
57047;SDS011;42934;54.294;18.598;2022-10-16T05:27:35;36.58;;;23.05;;
57047;SDS011;42934;54.294;18.598;2022-10-16T05:30:04;37.08;;;23.65;;
57047;SDS011;42934;54.294;18.598;2022-10-16T05:32:38;38.30;;;24.20;;
57047;SDS011;42934;54.294;18.598;2022-10-16T05:35:07;36.10;;;24.80;;
57047;SDS011;42934;54.294;18.598;2022-10-16T05:37:38;36.72;;;24.17;;
57047;SDS011;42934;54.294;18.598;2022-10-16T05:40:07;37.22;;;24.08;;
57047;SDS011;42934;54.294;18.598;2022-10-16T05:42:38;38.70;;;24.70;;
57047;SDS011;42934;54.294;18.598;2022-10-16T05:45:08;41.72;;;26.15;;
57047;SDS011;42934;54.294;18.598;2022-10-16T05:47:38;39.17;;;24.73;;
57047;SDS011;42934;54.294;18.598;2022-10-16T05:50:08;38.88;;;24.88;;
57047;SDS011;42934;54.294;18.598;2022-10-16T05:52:37;41.13;;;26.63;;
57047;SDS011;42934;54.294;18.598;2022-10-16T05:55:06;40.78;;;25.77;;
57047;SDS011;42934;54.294;18.598;2022-10-16T05:57:35;39.72;;;25.90;;
57047;SDS011;42934;54.294;18.598;2022-10-16T06:00:07;38.20;;;25.90;;
57047;SDS011;42934;54.294;18.598;2022-10-16T06:02:39;39.67;;;25.33;;
57047;SDS011;42934;54.294;18.598;2022-10-16T06:05:08;37.20;;;25.08;;
57047;SDS011;42934;54.294;18.598;2022-10-16T06:07:37;42.67;;;26.90;;
57047;SDS011;42934;54.294;18.598;2022-10-16T06:10:07;41.38;;;26.35;;
57047;SDS011;42934;54.294;18.598;2022-10-16T06:12:36;41.15;;;27.55;;
57047;SDS011;42934;54.294;18.598;2022-10-16T06:15:07;40.53;;;26.65;;
57047;SDS011;42934;54.294;18.598;2022-10-16T06:17:36;41.28;;;26.73;;
57047;SDS011;42934;54.294;18.598;2022-10-16T06:20:05;39.25;;;26.63;;
57047;SDS011;42934;54.294;18.598;2022-10-16T06:22:35;42.50;;;26.70;;
57047;SDS011;42934;54.294;18.598;2022-10-16T06:25:04;39.90;;;25.25;;
57047;SDS011;42934;54.294;18.598;2022-10-16T06:27:33;38.63;;;26.15;;
57047;SDS011;42934;54.294;18.598;2022-10-16T06:30:02;42.78;;;26.20;;
57047;SDS011;42934;54.294;18.598;2022-10-16T06:32:33;42.80;;;26.70;;
57047;SDS011;42934;54.294;18.598;2022-10-16T06:37:31;38.67;;;25.63;;
57047;SDS011;42934;54.294;18.598;2022-10-16T06:40:00;36.90;;;24.55;;
57047;SDS011;42934;54.294;18.598;2022-10-16T06:42:31;39.97;;;26.25;;
57047;SDS011;42934;54.294;18.598;2022-10-16T06:45:00;39.30;;;26.15;;
57047;SDS011;42934;54.294;18.598;2022-10-16T06:47:29;36.92;;;23.98;;
57047;SDS011;42934;54.294;18.598;2022-10-16T06:49:59;40.63;;;26.27;;
57047;SDS011;42934;54.294;18.598;2022-10-16T06:52:28;39.13;;;25.05;;
57047;SDS011;42934;54.294;18.598;2022-10-16T06:54:57;37.60;;;26.15;;
57047;SDS011;42934;54.294;18.598;2022-10-16T06:57:26;41.65;;;26.42;;
57047;SDS011;42934;54.294;18.598;2022-10-16T06:59:55;36.53;;;25.23;;
57047;SDS011;42934;54.294;18.598;2022-10-16T07:02:24;35.22;;;24.73;;
57047;SDS011;42934;54.294;18.598;2022-10-16T07:04:54;36.90;;;24.92;;
57047;SDS011;42934;54.294;18.598;2022-10-16T07:07:25;38.33;;;25.92;;
57047;SDS011;42934;54.294;18.598;2022-10-16T07:12:22;35.90;;;23.70;;
57047;SDS011;42934;54.294;18.598;2022-10-16T07:14:51;37.05;;;24.95;;
57047;SDS011;42934;54.294;18.598;2022-10-16T07:17:21;34.95;;;25.30;;
57047;SDS011;42934;54.294;18.598;2022-10-16T07:19:50;34.15;;;23.63;;
57047;SDS011;42934;54.294;18.598;2022-10-16T07:22:20;38.15;;;25.60;;
57047;SDS011;42934;54.294;18.598;2022-10-16T07:24:50;33.07;;;22.93;;
57047;SDS011;42934;54.294;18.598;2022-10-16T07:27:20;35.58;;;24.50;;
57047;SDS011;42934;54.294;18.598;2022-10-16T07:29:50;41.70;;;27.63;;
57047;SDS011;42934;54.294;18.598;2022-10-16T07:32:19;38.70;;;26.48;;
57047;SDS011;42934;54.294;18.598;2022-10-16T07:34:48;40.20;;;27.40;;
57047;SDS011;42934;54.294;18.598;2022-10-16T07:37:17;38.42;;;26.15;;
57047;SDS011;42934;54.294;18.598;2022-10-16T07:39:46;37.08;;;25.35;;
57047;SDS011;42934;54.294;18.598;2022-10-16T07:42:16;36.78;;;25.23;;
57047;SDS011;42934;54.294;18.598;2022-10-16T07:44:46;36.75;;;25.17;;
57047;SDS011;42934;54.294;18.598;2022-10-16T07:47:15;40.88;;;25.73;;
57047;SDS011;42934;54.294;18.598;2022-10-16T07:49:44;34.10;;;23.92;;
57047;SDS011;42934;54.294;18.598;2022-10-16T07:52:13;31.17;;;22.53;;
57047;SDS011;42934;54.294;18.598;2022-10-16T07:54:42;33.70;;;23.90;;
57047;SDS011;42934;54.294;18.598;2022-10-16T07:57:11;31.00;;;21.85;;
57047;SDS011;42934;54.294;18.598;2022-10-16T07:59:46;35.58;;;23.52;;
57047;SDS011;42934;54.294;18.598;2022-10-16T08:02:16;34.20;;;24.02;;
57047;SDS011;42934;54.294;18.598;2022-10-16T08:04:46;36.80;;;24.88;;
57047;SDS011;42934;54.294;18.598;2022-10-16T08:07:16;36.50;;;24.13;;
57047;SDS011;42934;54.294;18.598;2022-10-16T08:09:48;33.88;;;23.15;;
57047;SDS011;42934;54.294;18.598;2022-10-16T08:12:18;35.20;;;24.63;;
57047;SDS011;42934;54.294;18.598;2022-10-16T08:14:48;34.63;;;23.80;;
57047;SDS011;42934;54.294;18.598;2022-10-16T08:17:17;32.58;;;21.98;;
57047;SDS011;42934;54.294;18.598;2022-10-16T08:19:46;33.50;;;23.65;;
57047;SDS011;42934;54.294;18.598;2022-10-16T08:22:15;37.70;;;24.00;;
57047;SDS011;42934;54.294;18.598;2022-10-16T08:24:44;36.33;;;23.83;;
57047;SDS011;42934;54.294;18.598;2022-10-16T08:27:13;36.17;;;24.25;;
57047;SDS011;42934;54.294;18.598;2022-10-16T08:29:42;33.58;;;23.10;;
57047;SDS011;42934;54.294;18.598;2022-10-16T08:32:13;33.05;;;24.05;;
57047;SDS011;42934;54.294;18.598;2022-10-16T08:34:42;34.30;;;23.73;;
57047;SDS011;42934;54.294;18.598;2022-10-16T08:37:11;34.58;;;22.65;;
57047;SDS011;42934;54.294;18.598;2022-10-16T08:39:40;35.50;;;23.70;;
57047;SDS011;42934;54.294;18.598;2022-10-16T08:42:19;37.53;;;23.55;;
57047;SDS011;42934;54.294;18.598;2022-10-16T08:45:20;35.55;;;23.33;;
57047;SDS011;42934;54.294;18.598;2022-10-16T08:48:03;31.33;;;22.10;;
57047;SDS011;42934;54.294;18.598;2022-10-16T08:50:39;33.65;;;23.15;;
57047;SDS011;42934;54.294;18.598;2022-10-16T08:53:10;34.63;;;22.95;;
57047;SDS011;42934;54.294;18.598;2022-10-16T08:55:46;32.13;;;22.77;;
57047;SDS011;42934;54.294;18.598;2022-10-16T08:58:18;35.78;;;23.38;;
57047;SDS011;42934;54.294;18.598;2022-10-16T09:00:49;32.72;;;21.50;;
57047;SDS011;42934;54.294;18.598;2022-10-16T09:03:27;31.42;;;22.15;;
57047;SDS011;42934;54.294;18.598;2022-10-16T09:06:12;32.40;;;22.70;;
57047;SDS011;42934;54.294;18.598;2022-10-16T09:08:57;34.30;;;22.88;;
57047;SDS011;42934;54.294;18.598;2022-10-16T09:11:41;35.83;;;22.40;;
57047;SDS011;42934;54.294;18.598;2022-10-16T09:14:27;32.67;;;21.75;;
57047;SDS011;42934;54.294;18.598;2022-10-16T09:17:17;34.67;;;22.63;;
57047;SDS011;42934;54.294;18.598;2022-10-16T09:19:56;36.30;;;22.42;;
57047;SDS011;42934;54.294;18.598;2022-10-16T09:22:32;32.58;;;21.08;;
57047;SDS011;42934;54.294;18.598;2022-10-16T09:25:04;32.17;;;21.80;;
57047;SDS011;42934;54.294;18.598;2022-10-16T09:27:40;25.42;;;18.17;;
57047;SDS011;42934;54.294;18.598;2022-10-16T09:30:13;30.95;;;20.73;;
57047;SDS011;42934;54.294;18.598;2022-10-16T09:32:45;32.85;;;21.92;;
57047;SDS011;42934;54.294;18.598;2022-10-16T09:35:19;30.13;;;20.92;;
57047;SDS011;42934;54.294;18.598;2022-10-16T09:37:51;30.73;;;21.02;;
57047;SDS011;42934;54.294;18.598;2022-10-16T09:40:26;31.88;;;20.17;;
57047;SDS011;42934;54.294;18.598;2022-10-16T09:42:57;32.25;;;20.70;;
57047;SDS011;42934;54.294;18.598;2022-10-16T09:45:34;28.92;;;20.20;;
57047;SDS011;42934;54.294;18.598;2022-10-16T09:48:10;31.63;;;20.23;;
57047;SDS011;42934;54.294;18.598;2022-10-16T09:50:41;28.85;;;20.00;;
57047;SDS011;42934;54.294;18.598;2022-10-16T09:53:11;26.45;;;19.23;;
57047;SDS011;42934;54.294;18.598;2022-10-16T09:55:50;26.08;;;17.92;;
57047;SDS011;42934;54.294;18.598;2022-10-16T09:58:21;25.15;;;18.02;;
57047;SDS011;42934;54.294;18.598;2022-10-16T10:00:51;25.33;;;17.25;;
57047;SDS011;42934;54.294;18.598;2022-10-16T10:03:30;24.75;;;17.17;;
57047;SDS011;42934;54.294;18.598;2022-10-16T10:06:16;26.25;;;17.58;;
57047;SDS011;42934;54.294;18.598;2022-10-16T10:08:52;24.92;;;17.02;;
57047;SDS011;42934;54.294;18.598;2022-10-16T10:11:40;25.20;;;17.95;;
57047;SDS011;42934;54.294;18.598;2022-10-16T10:17:10;25.48;;;18.15;;
57047;SDS011;42934;54.294;18.598;2022-10-16T10:19:46;24.90;;;17.75;;
57047;SDS011;42934;54.294;18.598;2022-10-16T10:22:26;29.92;;;18.17;;
57047;SDS011;42934;54.294;18.598;2022-10-16T10:25:12;23.98;;;17.48;;
57047;SDS011;42934;54.294;18.598;2022-10-16T10:27:52;25.88;;;18.25;;
57047;SDS011;42934;54.294;18.598;2022-10-16T10:30:40;27.65;;;18.60;;
57047;SDS011;42934;54.294;18.598;2022-10-16T10:33:19;25.33;;;18.13;;
57047;SDS011;42934;54.294;18.598;2022-10-16T10:35:56;25.52;;;18.20;;
57047;SDS011;42934;54.294;18.598;2022-10-16T10:38:37;28.98;;;19.48;;
57047;SDS011;42934;54.294;18.598;2022-10-16T10:41:15;29.42;;;19.25;;
57047;SDS011;42934;54.294;18.598;2022-10-16T10:44:01;26.85;;;19.80;;
57047;SDS011;42934;54.294;18.598;2022-10-16T10:46:41;26.58;;;18.42;;
57047;SDS011;42934;54.294;18.598;2022-10-16T10:49:20;23.10;;;17.60;;
57047;SDS011;42934;54.294;18.598;2022-10-16T10:52:07;24.77;;;17.73;;
57047;SDS011;42934;54.294;18.598;2022-10-16T10:55:01;27.23;;;19.30;;
57047;SDS011;42934;54.294;18.598;2022-10-16T10:57:38;27.17;;;18.15;;
57047;SDS011;42934;54.294;18.598;2022-10-16T11:00:16;29.35;;;18.70;;
57047;SDS011;42934;54.294;18.598;2022-10-16T11:02:54;25.40;;;18.50;;
57047;SDS011;42934;54.294;18.598;2022-10-16T11:05:42;24.87;;;17.17;;
57047;SDS011;42934;54.294;18.598;2022-10-16T11:08:14;27.13;;;19.00;;
57047;SDS011;42934;54.294;18.598;2022-10-16T11:10:52;27.58;;;19.75;;
57047;SDS011;42934;54.294;18.598;2022-10-16T11:13:26;24.80;;;18.08;;
57047;SDS011;42934;54.294;18.598;2022-10-16T11:16:00;26.77;;;18.70;;
57047;SDS011;42934;54.294;18.598;2022-10-16T11:18:39;27.52;;;18.27;;
57047;SDS011;42934;54.294;18.598;2022-10-16T11:21:17;28.60;;;19.23;;
57047;SDS011;42934;54.294;18.598;2022-10-16T11:23:57;24.97;;;18.43;;
57047;SDS011;42934;54.294;18.598;2022-10-16T11:26:34;23.45;;;17.35;;
57047;SDS011;42934;54.294;18.598;2022-10-16T11:29:10;25.13;;;17.50;;
57047;SDS011;42934;54.294;18.598;2022-10-16T11:31:46;24.30;;;17.30;;
57047;SDS011;42934;54.294;18.598;2022-10-16T11:34:21;25.58;;;17.38;;
57047;SDS011;42934;54.294;18.598;2022-10-16T11:36:56;24.75;;;17.02;;
57047;SDS011;42934;54.294;18.598;2022-10-16T11:39:30;20.27;;;16.23;;
57047;SDS011;42934;54.294;18.598;2022-10-16T11:42:03;22.17;;;16.73;;
57047;SDS011;42934;54.294;18.598;2022-10-16T11:44:50;22.33;;;16.20;;
57047;SDS011;42934;54.294;18.598;2022-10-16T11:47:24;19.65;;;15.50;;
57047;SDS011;42934;54.294;18.598;2022-10-16T11:50:20;20.88;;;16.52;;
57047;SDS011;42934;54.294;18.598;2022-10-16T11:52:55;21.65;;;16.30;;
57047;SDS011;42934;54.294;18.598;2022-10-16T11:55:32;20.98;;;15.45;;
57047;SDS011;42934;54.294;18.598;2022-10-16T11:58:13;20.45;;;15.50;;
57047;SDS011;42934;54.294;18.598;2022-10-16T12:00:53;19.02;;;13.93;;
57047;SDS011;42934;54.294;18.598;2022-10-16T12:03:28;18.55;;;13.85;;
57047;SDS011;42934;54.294;18.598;2022-10-16T12:06:12;16.85;;;12.50;;
57047;SDS011;42934;54.294;18.598;2022-10-16T12:08:51;16.63;;;12.32;;
57047;SDS011;42934;54.294;18.598;2022-10-16T12:11:24;16.35;;;13.43;;
57047;SDS011;42934;54.294;18.598;2022-10-16T12:14:05;19.75;;;13.27;;
57047;SDS011;42934;54.294;18.598;2022-10-16T12:16:55;17.23;;;13.20;;
57047;SDS011;42934;54.294;18.598;2022-10-16T12:19:27;13.57;;;11.90;;
57047;SDS011;42934;54.294;18.598;2022-10-16T12:21:57;13.30;;;11.75;;
57047;SDS011;42934;54.294;18.598;2022-10-16T12:24:30;13.00;;;11.60;;
57047;SDS011;42934;54.294;18.598;2022-10-16T12:27:02;12.05;;;10.75;;
57047;SDS011;42934;54.294;18.598;2022-10-16T12:29:36;14.65;;;11.32;;
57047;SDS011;42934;54.294;18.598;2022-10-16T12:32:19;14.45;;;11.65;;
57047;SDS011;42934;54.294;18.598;2022-10-16T12:35:17;12.93;;;11.13;;
57047;SDS011;42934;54.294;18.598;2022-10-16T12:37:49;13.52;;;10.25;;
57047;SDS011;42934;54.294;18.598;2022-10-16T12:42:53;12.00;;;9.95;;
57047;SDS011;42934;54.294;18.598;2022-10-16T12:45:29;12.48;;;10.10;;
57047;SDS011;42934;54.294;18.598;2022-10-16T12:48:00;10.43;;;9.32;;
57047;SDS011;42934;54.294;18.598;2022-10-16T12:50:32;13.73;;;9.50;;
57047;SDS011;42934;54.294;18.598;2022-10-16T12:53:03;10.77;;;9.52;;
57047;SDS011;42934;54.294;18.598;2022-10-16T12:55:49;12.32;;;9.75;;
57047;SDS011;42934;54.294;18.598;2022-10-16T13:01:28;10.43;;;8.65;;
57047;SDS011;42934;54.294;18.598;2022-10-16T13:04:14;9.68;;;8.68;;
57047;SDS011;42934;54.294;18.598;2022-10-16T13:06:56;10.18;;;8.63;;
57047;SDS011;42934;54.294;18.598;2022-10-16T13:09:49;15.32;;;10.38;;
57047;SDS011;42934;54.294;18.598;2022-10-16T13:12:36;10.95;;;7.50;;
57047;SDS011;42934;54.294;18.598;2022-10-16T13:15:28;8.40;;;6.93;;
57047;SDS011;42934;54.294;18.598;2022-10-16T13:18:10;8.75;;;7.78;;
57047;SDS011;42934;54.294;18.598;2022-10-16T13:20:51;8.98;;;7.22;;
57047;SDS011;42934;54.294;18.598;2022-10-16T13:23:38;9.18;;;7.70;;
57047;SDS011;42934;54.294;18.598;2022-10-16T13:26:17;8.85;;;7.95;;
57047;SDS011;42934;54.294;18.598;2022-10-16T13:28:52;9.80;;;8.18;;
57047;SDS011;42934;54.294;18.598;2022-10-16T13:31:22;8.48;;;7.63;;
57047;SDS011;42934;54.294;18.598;2022-10-16T13:33:55;8.45;;;7.65;;
57047;SDS011;42934;54.294;18.598;2022-10-16T13:36:27;8.48;;;7.65;;
57047;SDS011;42934;54.294;18.598;2022-10-16T13:39:06;8.68;;;7.18;;
57047;SDS011;42934;54.294;18.598;2022-10-16T13:41:40;8.60;;;7.72;;
57047;SDS011;42934;54.294;18.598;2022-10-16T13:44:13;8.38;;;7.47;;
57047;SDS011;42934;54.294;18.598;2022-10-16T13:46:45;10.50;;;7.82;;
57047;SDS011;42934;54.294;18.598;2022-10-16T13:49:16;11.07;;;7.93;;
57047;SDS011;42934;54.294;18.598;2022-10-16T13:51:53;7.85;;;7.05;;
57047;SDS011;42934;54.294;18.598;2022-10-16T13:54:24;8.93;;;7.72;;
57047;SDS011;42934;54.294;18.598;2022-10-16T13:56:55;10.10;;;7.75;;
57047;SDS011;42934;54.294;18.598;2022-10-16T13:59:35;9.38;;;7.97;;
57047;SDS011;42934;54.294;18.598;2022-10-16T14:02:06;14.07;;;8.38;;
57047;SDS011;42934;54.294;18.598;2022-10-16T14:04:46;10.10;;;7.88;;
57047;SDS011;42934;54.294;18.598;2022-10-16T14:07:18;9.10;;;8.20;;
57047;SDS011;42934;54.294;18.598;2022-10-16T14:09:51;10.50;;;8.07;;
57047;SDS011;42934;54.294;18.598;2022-10-16T14:12:22;9.65;;;8.20;;
57047;SDS011;42934;54.294;18.598;2022-10-16T14:14:54;10.55;;;8.02;;
57047;SDS011;42934;54.294;18.598;2022-10-16T14:17:25;9.45;;;8.45;;
57047;SDS011;42934;54.294;18.598;2022-10-16T14:19:58;13.50;;;8.10;;
57047;SDS011;42934;54.294;18.598;2022-10-16T14:22:33;10.55;;;9.15;;
57047;SDS011;42934;54.294;18.598;2022-10-16T14:25:27;10.85;;;9.48;;
57047;SDS011;42934;54.294;18.598;2022-10-16T14:27:58;11.32;;;9.43;;
57047;SDS011;42934;54.294;18.598;2022-10-16T14:30:29;11.00;;;9.43;;
57047;SDS011;42934;54.294;18.598;2022-10-16T14:33:00;12.02;;;10.35;;
57047;SDS011;42934;54.294;18.598;2022-10-16T14:35:33;12.88;;;9.93;;
57047;SDS011;42934;54.294;18.598;2022-10-16T14:38:03;15.80;;;10.43;;
57047;SDS011;42934;54.294;18.598;2022-10-16T14:40:35;13.52;;;10.35;;
57047;SDS011;42934;54.294;18.598;2022-10-16T14:43:05;12.57;;;10.88;;
57047;SDS011;42934;54.294;18.598;2022-10-16T14:45:34;13.90;;;10.73;;
57047;SDS011;42934;54.294;18.598;2022-10-16T14:48:05;13.68;;;11.10;;
57047;SDS011;42934;54.294;18.598;2022-10-16T14:50:47;12.95;;;11.13;;
57047;SDS011;42934;54.294;18.598;2022-10-16T14:53:16;12.57;;;10.43;;
57047;SDS011;42934;54.294;18.598;2022-10-16T14:55:45;12.93;;;10.80;;
57047;SDS011;42934;54.294;18.598;2022-10-16T14:58:15;16.42;;;11.25;;
57047;SDS011;42934;54.294;18.598;2022-10-16T15:00:46;13.63;;;10.50;;
57047;SDS011;42934;54.294;18.598;2022-10-16T15:03:15;13.50;;;12.00;;
57047;SDS011;42934;54.294;18.598;2022-10-16T15:05:46;12.57;;;11.27;;
57047;SDS011;42934;54.294;18.598;2022-10-16T15:08:15;12.80;;;10.82;;
57047;SDS011;42934;54.294;18.598;2022-10-16T15:10:45;13.30;;;10.77;;
57047;SDS011;42934;54.294;18.598;2022-10-16T15:13:14;11.75;;;10.23;;
57047;SDS011;42934;54.294;18.598;2022-10-16T15:15:43;14.32;;;11.00;;